Bilhorod-Dnistrovs'kyy, Ukraine
Current Conditions -  °F | °C
As of 7:39 AM on Monday 26 Jan 2015 (Local Time) from UKOO Reporting Station
Moderate Fog Moderate Fog  
Wind Chill: 30°   Ceiling: 200
Heat Index: 34°   Visibility: 0.15mi
Dew Point: 34°   Wind: 4mph
Humidity: 100%   Direction: NA
Pressure: 30.09"   Gusts: NA
Location:  46.2°N, 30.35°E
Report Text: UKOO 260439Z VRB02MPS 0250 R16/0750D FG VV002 01/01 Q1019 16290054 NOSIG
Loading
Personal Weather Stations






























Interactive Weather Map New forecast layout! Learn more

10-Day Weather Forecast

Advertisements
Track Severe Weather on mobile